createdAt,value
2023-02-28T00:02:09.438Z,22.09
2023-02-28T00:54:57.279Z,21.64
2023-02-28T00:55:58.234Z,21.86
2023-02-28T00:56:58.222Z,21.91
2023-02-28T00:57:58.232Z,21.95
2023-02-28T00:58:59.099Z,21.96
2023-02-28T00:59:58.221Z,21.99
2023-02-28T01:00:58.188Z,22.01
2023-02-28T01:01:58.188Z,22.01
2023-02-28T01:02:58.170Z,22.00
2023-02-28T01:03:58.160Z,22.01
2023-02-28T01:04:58.419Z,22.03
2023-02-28T01:05:58.150Z,22.02
2023-02-28T01:06:58.140Z,22.03
2023-02-28T01:07:58.123Z,22.03
2023-02-28T01:08:58.113Z,22.03
2023-02-28T01:09:58.113Z,22.03
2023-02-28T01:10:58.129Z,22.03
2023-02-28T01:11:58.096Z,22.03
2023-02-28T01:12:58.078Z,22.03
2023-02-28T01:13:58.075Z,22.03
2023-02-28T01:14:58.066Z,22.02
2023-02-28T01:15:58.225Z,22.03
2023-02-28T01:16:58.042Z,22.04
2023-02-28T01:17:58.031Z,22.04
2023-02-28T01:18:58.038Z,22.04
2023-02-28T01:19:58.019Z,22.03
2023-02-28T01:20:58.008Z,22.04
2023-02-28T01:21:58.000Z,22.03
2023-02-28T01:22:57.983Z,22.02
2023-02-28T01:23:57.981Z,22.02
2023-02-28T01:24:57.970Z,22.02
2023-02-28T01:25:57.965Z,22.01
2023-02-28T01:26:57.974Z,22.00
2023-02-28T01:27:57.940Z,22.00
2023-02-28T01:28:57.931Z,22.00
2023-02-28T01:29:57.922Z,21.99
2023-02-28T01:30:57.972Z,22.00
2023-02-28T01:31:57.975Z,22.00
2023-02-28T01:32:57.891Z,22.00
2023-02-28T01:33:57.904Z,22.00
2023-02-28T01:34:57.883Z,21.99
2023-02-28T01:35:57.916Z,22.00
2023-02-28T01:36:57.858Z,22.00
2023-02-28T01:38:04.639Z,22.01
2023-02-28T01:38:57.849Z,22.00
2023-02-28T01:39:57.829Z,21.99
2023-02-28T01:40:57.815Z,21.99
2023-02-28T01:41:57.812Z,21.99
2023-02-28T01:42:57.827Z,22.00
2023-02-28T01:43:57.797Z,21.99
2023-02-28T01:44:57.796Z,21.99
2023-02-28T01:45:57.777Z,22.00
2023-02-28T01:46:57.770Z,22.00
2023-02-28T01:47:57.756Z,22.00
2023-02-28T01:48:57.749Z,21.99
2023-02-28T01:49:57.737Z,21.99
2023-02-28T01:50:57.831Z,21.98
2023-02-28T01:51:57.737Z,21.98
2023-02-28T01:52:57.703Z,21.98
2023-02-28T01:53:57.708Z,21.98
2023-02-28T01:54:57.688Z,21.98
2023-02-28T01:55:57.681Z,21.98
2023-02-28T01:56:57.668Z,21.97
2023-02-28T01:57:57.658Z,21.97
2023-02-28T01:58:57.674Z,21.98
2023-02-28T01:59:57.647Z,21.97
2023-02-28T02:00:57.634Z,21.97
2023-02-28T02:01:57.703Z,21.97
2023-02-28T02:02:57.644Z,21.97
2023-02-28T02:03:57.619Z,21.98
2023-02-28T02:04:57.595Z,21.98
2023-02-28T02:05:57.594Z,21.97
2023-02-28T02:06:57.579Z,21.97
2023-02-28T02:07:57.592Z,21.97
2023-02-28T02:08:57.565Z,21.99
2023-02-28T02:09:57.781Z,21.98
2023-02-28T02:10:57.539Z,21.97
2023-02-28T02:11:57.533Z,21.98
2023-02-28T02:12:57.521Z,21.97
2023-02-28T02:13:57.512Z,21.97
2023-02-28T02:14:57.529Z,21.96
2023-02-28T02:15:57.519Z,21.97
2023-02-28T02:16:57.490Z,21.98
2023-02-28T02:17:57.485Z,21.97
2023-02-28T02:18:57.473Z,21.97
2023-02-28T02:19:57.455Z,21.96
2023-02-28T02:20:57.456Z,21.96
2023-02-28T02:21:57.444Z,21.96
2023-02-28T02:22:57.435Z,21.96
2023-02-28T02:23:57.422Z,21.96
2023-02-28T02:24:57.411Z,21.96
2023-02-28T02:25:57.414Z,21.95
2023-02-28T02:26:57.418Z,21.95
2023-02-28T02:27:57.390Z,21.95
2023-02-28T02:28:57.381Z,21.96
2023-02-28T02:29:57.362Z,21.96
2023-02-28T02:30:57.387Z,21.97
2023-02-28T02:31:57.398Z,21.97
2023-02-28T02:32:57.347Z,21.97
2023-02-28T02:33:57.334Z,21.96
2023-02-28T02:34:57.325Z,21.96
2023-02-28T02:35:57.402Z,21.96
2023-02-28T02:36:57.319Z,21.96
2023-02-28T02:37:57.299Z,21.96
2023-02-28T02:38:57.285Z,21.97
2023-02-28T02:39:57.276Z,21.98
2023-02-28T02:40:57.273Z,21.97
2023-02-28T02:41:57.259Z,21.96
2023-02-28T02:42:57.251Z,21.96
2023-02-28T02:43:57.239Z,21.96
2023-02-28T02:44:57.236Z,21.96
2023-02-28T02:45:57.215Z,21.95
2023-02-28T02:46:57.303Z,21.95
2023-02-28T02:47:57.198Z,21.95
2023-02-28T02:48:57.191Z,21.95
2023-02-28T02:49:57.181Z,21.95
2023-02-28T02:50:57.177Z,21.95
2023-02-28T02:51:57.176Z,21.95
2023-02-28T02:52:57.158Z,21.95
2023-02-28T02:53:57.150Z,21.95
2023-02-28T02:54:57.148Z,21.96
2023-02-28T02:55:57.132Z,21.96
2023-02-28T02:56:57.151Z,21.96
2023-02-28T02:57:57.109Z,21.95
2023-02-28T02:58:57.104Z,21.94
2023-02-28T02:59:57.098Z,21.94
2023-02-28T03:00:57.234Z,21.94
2023-02-28T03:01:57.081Z,21.95
2023-02-28T03:02:57.099Z,21.95
2023-02-28T03:03:57.214Z,21.94
2023-02-28T03:04:57.044Z,21.94
2023-02-28T03:05:57.044Z,21.94
2023-02-28T03:06:57.658Z,21.93
2023-02-28T03:07:57.020Z,21.95
2023-02-28T03:08:57.026Z,21.95
2023-02-28T03:09:56.998Z,21.94
2023-02-28T03:10:56.990Z,21.94
2023-02-28T03:11:56.991Z,21.94
2023-02-28T03:12:56.977Z,21.94
2023-02-28T03:13:56.964Z,21.93
2023-02-28T03:14:56.959Z,21.93
2023-02-28T03:15:56.980Z,21.92
2023-02-28T03:16:56.942Z,21.93
2023-02-28T03:17:56.931Z,21.93
2023-02-28T03:18:56.960Z,21.92
2023-02-28T03:19:56.908Z,21.92
2023-02-28T03:20:56.912Z,21.92
2023-02-28T03:21:56.897Z,21.92
2023-02-28T03:22:56.887Z,21.91
2023-02-28T03:23:56.876Z,21.92
2023-02-28T03:24:56.864Z,21.93
2023-02-28T03:25:56.862Z,21.93
2023-02-28T03:26:56.847Z,21.93
2023-02-28T03:27:56.846Z,21.92
2023-02-28T03:28:56.834Z,21.92
2023-02-28T03:29:56.821Z,21.93
2023-02-28T03:30:56.824Z,21.93
2023-02-28T03:31:56.882Z,21.92
2023-02-28T03:32:56.799Z,21.93
2023-02-28T03:33:56.785Z,21.93
2023-02-28T03:34:56.802Z,21.93
2023-02-28T03:35:56.785Z,21.95
2023-02-28T03:36:56.782Z,21.95
2023-02-28T03:37:56.750Z,21.94
2023-02-28T03:38:56.750Z,21.93
2023-02-28T03:39:56.734Z,21.93
2023-02-28T03:40:56.736Z,21.93
2023-02-28T03:41:56.713Z,21.92
2023-02-28T03:42:56.708Z,21.93
2023-02-28T03:43:56.695Z,21.92
2023-02-28T03:44:56.688Z,21.92
2023-02-28T03:45:56.722Z,21.92
2023-02-28T03:46:56.666Z,21.93
2023-02-28T03:47:56.661Z,21.94
2023-02-28T03:48:56.801Z,21.95
2023-02-28T03:49:56.639Z,21.94
2023-02-28T03:50:56.657Z,21.96
2023-02-28T03:51:56.627Z,21.94
2023-02-28T03:52:56.610Z,21.94
2023-02-28T03:53:56.604Z,21.93
2023-02-28T03:54:56.598Z,21.93
2023-02-28T03:55:56.585Z,21.94
2023-02-28T03:56:56.582Z,21.94
2023-02-28T03:57:56.578Z,21.95
2023-02-28T03:58:56.579Z,21.95
2023-02-28T03:59:56.559Z,21.94
2023-02-28T04:00:56.541Z,21.93
2023-02-28T04:01:56.549Z,21.93
2023-02-28T04:02:56.519Z,21.92
2023-02-28T04:03:56.511Z,21.91
2023-02-28T04:04:56.501Z,21.92
2023-02-28T04:05:56.490Z,21.92
2023-02-28T04:06:56.511Z,21.93
2023-02-28T04:07:56.476Z,21.94
2023-02-28T04:08:56.468Z,21.95
2023-02-28T04:09:56.459Z,21.95
2023-02-28T04:10:56.446Z,21.95
2023-02-28T04:11:56.437Z,21.93
2023-02-28T04:12:56.428Z,21.93
2023-02-28T04:13:56.421Z,21.94
2023-02-28T04:14:56.422Z,21.93
2023-02-28T04:15:56.470Z,21.93
2023-02-28T04:16:56.393Z,21.92
2023-02-28T04:17:56.386Z,21.91
2023-02-28T04:18:56.370Z,21.93
2023-02-28T04:19:56.372Z,21.97
2023-02-28T04:20:56.353Z,21.99
2023-02-28T04:21:56.347Z,22.01
2023-02-28T04:22:56.363Z,22.02
2023-02-28T04:23:56.347Z,22.03
2023-02-28T04:24:56.317Z,22.03
2023-02-28T04:25:56.310Z,22.04
2023-02-28T04:26:56.318Z,22.04
2023-02-28T04:27:56.301Z,22.04
2023-02-28T04:28:56.279Z,22.04
2023-02-28T04:29:56.269Z,22.04
2023-02-28T04:30:56.261Z,22.03
2023-02-28T04:31:56.386Z,22.04
2023-02-28T04:32:56.238Z,22.03
2023-02-28T04:33:56.242Z,22.03
2023-02-28T04:34:56.228Z,22.03
2023-02-28T04:35:56.233Z,22.04
2023-02-28T04:37:11.944Z,22.04
2023-02-28T04:37:56.200Z,22.05
2023-02-28T04:38:56.220Z,22.05
2023-02-28T04:39:56.178Z,22.06
2023-02-28T04:40:56.172Z,22.06
2023-02-28T04:41:56.162Z,22.05
2023-02-28T04:42:56.155Z,22.06
2023-02-28T04:43:56.144Z,22.07
2023-02-28T04:44:56.133Z,22.08
2023-02-28T04:45:56.205Z,22.08
2023-02-28T04:46:56.115Z,22.08
2023-02-28T04:47:56.108Z,22.08
2023-02-28T04:48:56.128Z,22.07
2023-02-28T04:49:56.085Z,22.07
2023-02-28T04:50:56.082Z,22.07
2023-02-28T04:51:56.067Z,22.06
2023-02-28T04:52:56.064Z,22.05
2023-02-28T04:53:56.047Z,22.06
2023-02-28T04:54:56.068Z,22.06
2023-02-28T04:55:56.029Z,22.07
2023-02-28T04:56:56.018Z,22.07
2023-02-28T04:57:56.011Z,22.06
2023-02-28T04:58:56.011Z,22.06
2023-02-28T04:59:55.992Z,22.06
2023-02-28T05:00:55.982Z,22.06
2023-02-28T05:01:56.062Z,22.06
2023-02-28T05:02:55.969Z,22.06
2023-02-28T05:03:55.956Z,22.07
2023-02-28T05:04:56.037Z,22.07
2023-02-28T05:05:55.936Z,22.08
2023-02-28T05:06:55.932Z,22.08
2023-02-28T05:07:55.926Z,22.08
2023-02-28T05:08:55.923Z,22.08
2023-02-28T05:10:55.920Z,22.09
2023-02-28T05:11:55.888Z,22.09
2023-02-28T05:12:55.874Z,22.10
2023-02-28T05:13:55.864Z,22.10
2023-02-28T05:14:55.856Z,22.11
2023-02-28T05:15:55.925Z,22.11
2023-02-28T05:16:55.836Z,22.12
2023-02-28T05:17:55.832Z,22.12
2023-02-28T05:18:55.902Z,22.11
2023-02-28T05:20:01.104Z,22.10
2023-02-28T05:20:55.807Z,22.09
2023-02-28T05:21:55.792Z,22.10
2023-02-28T05:22:55.790Z,22.10
2023-02-28T05:23:55.797Z,22.11
2023-02-28T05:24:55.768Z,22.10
2023-02-28T05:25:55.754Z,22.10
2023-02-28T05:26:55.816Z,22.10
2023-02-28T05:27:55.747Z,22.10
2023-02-28T05:28:55.765Z,22.10
2023-02-28T05:29:55.723Z,22.10
2023-02-28T05:30:55.730Z,22.11
2023-02-28T05:31:55.869Z,22.11
2023-02-28T05:32:55.688Z,22.11
2023-02-28T05:33:55.713Z,22.12
2023-02-28T05:34:55.687Z,22.12
2023-02-28T05:35:55.718Z,22.12
2023-02-28T05:36:55.659Z,22.12
2023-02-28T05:37:55.647Z,22.12
2023-02-28T05:38:55.636Z,22.12
2023-02-28T05:39:55.636Z,22.12
2023-02-28T05:40:55.620Z,22.12
2023-02-28T05:41:55.612Z,22.12
2023-02-28T05:42:55.625Z,22.12
2023-02-28T05:43:55.596Z,22.12
2023-02-28T05:44:55.583Z,22.12
2023-02-28T05:45:55.640Z,22.12
2023-02-28T05:46:55.572Z,22.13
2023-02-28T05:47:55.575Z,22.14
2023-02-28T05:48:55.622Z,22.14
2023-02-28T05:49:55.534Z,22.14
2023-02-28T05:50:55.540Z,22.15
2023-02-28T05:51:55.520Z,22.15
2023-02-28T05:52:55.512Z,22.15
2023-02-28T05:53:55.503Z,22.16
2023-02-28T05:54:55.495Z,22.16
2023-02-28T05:55:55.502Z,22.15
2023-02-28T05:56:55.481Z,22.15
2023-02-28T05:57:55.475Z,22.16
2023-02-28T05:58:55.491Z,22.16
2023-02-28T05:59:55.474Z,22.15
2023-02-28T06:01:55.462Z,22.16
2023-02-28T06:02:55.423Z,22.17
2023-02-28T06:03:55.413Z,22.17
2023-02-28T06:04:55.461Z,22.18
2023-02-28T06:05:55.410Z,22.17
2023-02-28T06:06:55.391Z,22.17
2023-02-28T06:07:55.381Z,22.17
2023-02-28T06:08:55.375Z,22.18
2023-02-28T06:09:55.368Z,22.18
2023-02-28T06:10:55.377Z,22.16
2023-02-28T06:11:55.346Z,22.16
2023-02-28T06:12:55.332Z,22.16
2023-02-28T06:13:55.334Z,22.16
2023-02-28T06:14:55.343Z,22.15
2023-02-28T06:15:55.311Z,22.16
2023-02-28T06:16:57.326Z,22.17
2023-02-28T06:17:55.298Z,22.16
2023-02-28T06:18:55.289Z,22.18
2023-02-28T06:19:55.274Z,22.17
2023-02-28T06:20:55.382Z,22.16
2023-02-28T06:21:55.256Z,22.15
2023-02-28T06:22:55.251Z,22.15
2023-02-28T06:23:55.234Z,22.16
2023-02-28T06:24:55.228Z,22.16
2023-02-28T06:25:55.231Z,22.18
2023-02-28T06:26:55.213Z,22.18
2023-02-28T06:27:55.207Z,22.19
2023-02-28T06:28:55.201Z,22.19
2023-02-28T06:29:55.183Z,22.18
2023-02-28T06:30:55.471Z,22.18
2023-02-28T06:31:55.241Z,22.18
2023-02-28T06:32:55.165Z,22.19
2023-02-28T06:33:55.148Z,22.20
2023-02-28T06:34:55.172Z,22.21
2023-02-28T06:35:55.427Z,22.21
2023-02-28T06:36:55.122Z,22.22
2023-02-28T06:37:55.114Z,22.22
2023-02-28T06:38:55.102Z,22.22
2023-02-28T06:39:55.094Z,22.23
2023-02-28T06:40:55.098Z,22.22
2023-02-28T06:41:56.413Z,22.23
2023-02-28T06:42:56.388Z,22.23
2023-02-28T06:43:55.092Z,22.24
2023-02-28T06:44:55.086Z,22.24
2023-02-28T06:45:55.103Z,22.24
2023-02-28T06:46:55.435Z,22.24
2023-02-28T06:47:55.085Z,22.24
2023-02-28T06:48:55.053Z,22.24
2023-02-28T06:49:55.045Z,22.25
2023-02-28T06:50:55.028Z,22.25
2023-02-28T06:51:55.397Z,22.26
2023-02-28T06:52:55.396Z,22.26
2023-02-28T06:53:55.002Z,22.26
2023-02-28T06:54:55.008Z,22.26
2023-02-28T06:55:54.986Z,22.28
2023-02-28T06:56:54.974Z,22.30
2023-02-28T06:57:55.400Z,22.31
2023-02-28T06:58:54.975Z,22.34
2023-02-28T07:00:12.512Z,22.35
2023-02-28T07:00:58.188Z,22.36
2023-02-28T07:01:54.981Z,22.38
2023-02-28T07:02:55.453Z,22.44
2023-02-28T07:03:54.909Z,22.49
2023-02-28T07:04:55.070Z,22.52
2023-02-28T07:05:54.892Z,22.56
2023-02-28T07:06:54.881Z,22.59
2023-02-28T07:07:54.869Z,22.62
2023-02-28T07:08:55.447Z,22.65
2023-02-28T07:09:54.857Z,22.68
2023-02-28T07:10:54.845Z,22.69
2023-02-28T07:11:54.834Z,22.70
2023-02-28T07:12:54.828Z,22.71
2023-02-28T07:13:54.816Z,22.72
2023-02-28T07:14:54.900Z,22.72
2023-02-28T07:15:54.822Z,22.73
2023-02-28T07:16:54.786Z,22.74
2023-02-28T07:17:54.787Z,22.73
2023-02-28T07:18:54.816Z,22.74
2023-02-28T07:19:54.761Z,22.75
2023-02-28T07:20:54.752Z,22.78
2023-02-28T07:21:54.741Z,22.80
2023-02-28T07:22:54.738Z,22.81
2023-02-28T07:24:54.720Z,22.84
2023-02-28T07:25:54.714Z,22.84
2023-02-28T07:26:54.698Z,22.87
2023-02-28T07:27:54.686Z,22.88
2023-02-28T07:28:54.905Z,22.90
2023-02-28T07:29:54.668Z,22.91
2023-02-28T07:30:54.714Z,22.92
2023-02-28T07:31:54.764Z,22.92
2023-02-28T07:32:54.903Z,22.93
2023-02-28T07:33:55.635Z,22.95
2023-02-28T07:34:54.646Z,22.96
2023-02-28T07:35:54.681Z,22.95
2023-02-28T07:36:54.636Z,22.95
2023-02-28T07:37:54.910Z,22.95
2023-02-28T07:38:54.600Z,22.97
2023-02-28T07:39:54.632Z,22.97
2023-02-28T07:40:54.574Z,22.98
2023-02-28T07:41:54.585Z,23.00
2023-02-28T07:42:54.909Z,23.01
2023-02-28T07:43:54.918Z,23.00
2023-02-28T07:44:54.552Z,23.00
2023-02-28T07:45:54.545Z,23.01
2023-02-28T07:46:54.603Z,23.02
2023-02-28T07:47:54.915Z,23.02
2023-02-28T07:48:54.518Z,23.01
2023-02-28T07:49:54.917Z,23.02
2023-02-28T07:50:54.538Z,23.01
2023-02-28T07:51:54.493Z,23.02
2023-02-28T07:52:54.924Z,23.04
2023-02-28T07:53:54.475Z,23.05
2023-02-28T07:54:54.458Z,23.06
2023-02-28T07:55:56.640Z,23.07
2023-02-28T07:56:54.978Z,23.07
2023-02-28T07:58:54.421Z,23.11
2023-02-28T07:59:54.412Z,23.20
2023-02-28T08:00:54.492Z,23.50
2023-02-28T08:01:54.462Z,23.95
2023-02-28T08:02:54.432Z,24.44
2023-02-28T08:03:54.386Z,24.81
2023-02-28T08:04:54.471Z,25.11
2023-02-28T08:05:54.396Z,25.33
2023-02-28T08:06:54.379Z,25.51
2023-02-28T08:07:54.343Z,25.64
2023-02-28T08:08:54.359Z,25.72
2023-02-28T08:09:54.429Z,25.75
2023-02-28T08:10:56.432Z,25.76
2023-02-28T08:11:54.308Z,25.78
2023-02-28T08:12:54.301Z,25.77
2023-02-28T08:13:54.307Z,25.63
2023-02-28T08:14:54.433Z,25.43
2023-02-28T08:15:54.408Z,25.25
2023-02-28T08:16:54.266Z,25.08
2023-02-28T08:17:54.309Z,24.95
2023-02-28T08:18:54.253Z,24.81
2023-02-28T08:19:54.252Z,24.67
2023-02-28T08:20:54.228Z,24.53
2023-02-28T08:21:54.219Z,24.42
2023-02-28T08:22:55.206Z,24.31
2023-02-28T08:23:54.213Z,24.20
2023-02-28T08:24:54.194Z,24.12
2023-02-28T08:25:54.186Z,24.05
2023-02-28T08:26:54.176Z,23.97
2023-02-28T08:27:54.433Z,23.90
2023-02-28T08:28:56.130Z,23.85
2023-02-28T08:29:54.443Z,23.79
2023-02-28T08:30:54.736Z,23.74
2023-02-28T08:31:54.340Z,23.69
2023-02-28T08:32:54.168Z,23.67
2023-02-28T08:33:54.128Z,23.65
2023-02-28T08:34:55.111Z,23.66
2023-02-28T08:35:54.531Z,23.64
2023-02-28T08:36:54.112Z,23.63
2023-02-28T08:37:54.449Z,23.60
2023-02-28T08:38:54.105Z,23.57
2023-02-28T08:39:56.354Z,23.55
2023-02-28T08:40:54.460Z,23.53
2023-02-28T08:42:06.725Z,23.52
2023-02-28T08:42:54.049Z,23.49
2023-02-28T08:43:54.466Z,23.46
2023-02-28T08:44:54.025Z,23.44
2023-02-28T08:45:54.149Z,23.40
2023-02-28T08:46:54.042Z,23.38
2023-02-28T08:47:54.504Z,23.35
2023-02-28T08:48:54.466Z,23.34
2023-02-28T08:49:57.655Z,23.32
2023-02-28T08:51:06.307Z,23.30
2023-02-28T08:51:54.508Z,23.28
2023-02-28T08:52:54.054Z,23.27
2023-02-28T08:53:54.047Z,23.24
2023-02-28T08:54:54.029Z,23.24
2023-02-28T08:55:53.995Z,23.24
2023-02-28T08:56:53.970Z,23.25
2023-02-28T08:57:54.103Z,23.24
2023-02-28T08:58:54.159Z,23.21
2023-02-28T08:59:54.080Z,23.21
2023-02-28T09:00:54.491Z,23.21
2023-02-28T09:01:54.422Z,23.20
2023-02-28T09:02:54.372Z,23.19
2023-02-28T09:04:53.879Z,23.19
2023-02-28T09:05:54.220Z,23.17
2023-02-28T09:06:54.301Z,23.17
2023-02-28T09:07:53.826Z,23.17
2023-02-28T09:08:53.812Z,23.18
2023-02-28T09:09:53.940Z,23.19
2023-02-28T09:10:53.814Z,23.19
2023-02-28T09:11:53.775Z,23.20
2023-02-28T09:12:53.942Z,23.18
2023-02-28T09:13:53.764Z,23.18
2023-02-28T09:14:53.755Z,23.18
2023-02-28T09:15:53.743Z,23.17
2023-02-28T09:16:53.846Z,23.18
2023-02-28T09:17:53.947Z,23.19
2023-02-28T09:18:53.718Z,23.18
2023-02-28T09:19:53.956Z,23.19
2023-02-28T09:20:53.702Z,23.20
2023-02-28T09:21:53.954Z,23.20
2023-02-28T09:22:53.685Z,23.20
2023-02-28T09:23:53.680Z,23.20
2023-02-28T09:24:53.693Z,23.20
2023-02-28T09:25:53.655Z,23.21
2023-02-28T09:27:03.703Z,23.21
2023-02-28T09:27:53.947Z,23.20
2023-02-28T09:28:54.223Z,23.21
2023-02-28T09:29:53.817Z,23.21
2023-02-28T09:30:54.164Z,23.21
2023-02-28T09:31:53.930Z,23.21
2023-02-28T09:32:53.595Z,23.19
2023-02-28T09:33:54.052Z,23.19
2023-02-28T09:34:53.582Z,23.19
2023-02-28T09:35:53.988Z,23.20
2023-02-28T09:36:54.162Z,23.21
2023-02-28T09:37:53.564Z,23.21
2023-02-28T09:38:53.544Z,23.22
2023-02-28T09:39:53.527Z,23.22
2023-02-28T09:40:53.535Z,23.23
2023-02-28T09:41:53.966Z,23.23
2023-02-28T09:42:53.536Z,23.24
2023-02-28T09:43:53.493Z,23.23
2023-02-28T09:44:53.957Z,23.23
2023-02-28T09:45:53.528Z,23.23
2023-02-28T09:46:53.955Z,23.22
2023-02-28T09:47:53.462Z,23.22
2023-02-28T09:48:53.457Z,23.23
2023-02-28T09:49:53.443Z,23.22
2023-02-28T09:50:53.459Z,23.22
2023-02-28T09:51:53.552Z,23.21
2023-02-28T09:52:53.416Z,23.21
2023-02-28T09:54:00.054Z,23.21
2023-02-28T09:54:53.482Z,23.20
2023-02-28T09:55:53.398Z,23.18
2023-02-28T09:56:53.468Z,23.18
2023-02-28T09:57:53.369Z,23.18
2023-02-28T09:58:53.389Z,23.18
2023-02-28T09:59:53.355Z,23.18
2023-02-28T10:00:53.343Z,23.19
2023-02-28T10:01:53.496Z,23.17
2023-02-28T10:02:53.335Z,23.18
2023-02-28T10:03:53.318Z,23.18
2023-02-28T10:04:53.383Z,23.17
2023-02-28T10:05:53.482Z,23.18
2023-02-28T10:06:53.464Z,23.18
2023-02-28T10:07:53.282Z,23.18
2023-02-28T10:08:53.283Z,23.18
2023-02-28T10:09:53.272Z,23.18
2023-02-28T10:10:53.501Z,23.16
2023-02-28T10:11:54.444Z,23.17
2023-02-28T10:12:53.241Z,23.16
2023-02-28T10:13:53.470Z,23.16
2023-02-28T10:14:53.247Z,23.15
2023-02-28T10:15:53.230Z,23.15
2023-02-28T10:16:53.468Z,23.12
2023-02-28T10:18:00.733Z,23.10
2023-02-28T10:18:53.964Z,23.08
2023-02-28T10:19:53.169Z,23.08
2023-02-28T10:20:53.534Z,23.09
2023-02-28T10:21:53.155Z,23.09
2023-02-28T10:22:54.142Z,23.11
2023-02-28T10:23:53.471Z,23.11
2023-02-28T10:24:53.143Z,23.13
2023-02-28T10:25:53.118Z,23.13
2023-02-28T10:26:53.469Z,23.14
2023-02-28T10:27:53.101Z,23.14
2023-02-28T10:28:53.102Z,23.14
2023-02-28T10:29:53.084Z,23.14
2023-02-28T10:30:53.173Z,23.14
2023-02-28T10:31:53.524Z,23.13
2023-02-28T10:32:53.087Z,23.10
2023-02-28T10:33:53.475Z,23.09
2023-02-28T10:34:53.056Z,23.07
2023-02-28T10:35:53.093Z,23.05
2023-02-28T10:36:53.976Z,23.04
2023-02-28T10:37:53.011Z,23.03
2023-02-28T10:38:53.498Z,23.01
2023-02-28T10:39:53.000Z,22.99
2023-02-28T10:40:53.001Z,22.97
2023-02-28T10:41:53.893Z,22.96
2023-02-28T10:42:53.140Z,22.96
2023-02-28T10:43:53.929Z,22.95
2023-02-28T10:44:53.145Z,22.93
2023-02-28T10:45:53.126Z,22.92
2023-02-28T10:46:53.579Z,22.91
2023-02-28T10:47:54.719Z,22.90
2023-02-28T10:48:53.487Z,22.88
2023-02-28T10:49:53.076Z,22.86
2023-02-28T10:50:53.231Z,22.85
2023-02-28T10:51:53.491Z,22.85
2023-02-28T10:52:53.084Z,22.84
2023-02-28T10:54:01.001Z,22.82
2023-02-28T10:54:53.043Z,22.80
2023-02-28T10:55:53.027Z,22.80
2023-02-28T10:56:53.504Z,22.79
2023-02-28T10:57:53.513Z,22.77
2023-02-28T10:58:53.541Z,22.75
2023-02-28T10:59:53.000Z,22.75
2023-02-28T11:00:53.049Z,22.75
2023-02-28T11:01:53.765Z,22.72
2023-02-28T11:02:53.018Z,22.69
2023-02-28T11:03:52.972Z,22.68
2023-02-28T11:04:53.107Z,22.66
2023-02-28T11:05:52.955Z,22.64
2023-02-28T11:06:52.937Z,22.63
2023-02-28T11:07:53.632Z,22.60
2023-02-28T11:08:52.947Z,22.59
2023-02-28T11:09:53.025Z,22.56
2023-02-28T11:10:52.907Z,22.54
2023-02-28T11:11:52.871Z,22.54
2023-02-28T11:12:53.717Z,22.52
2023-02-28T11:13:52.857Z,22.51
2023-02-28T11:14:52.848Z,22.52
2023-02-28T11:15:53.208Z,22.50
2023-02-28T11:16:52.826Z,22.48
2023-02-28T11:17:52.828Z,22.47
2023-02-28T11:18:52.840Z,22.46
2023-02-28T11:19:53.383Z,22.44
2023-02-28T11:20:53.004Z,22.43
2023-02-28T11:21:52.782Z,22.42
2023-02-28T11:22:53.154Z,22.42
2023-02-28T11:23:52.768Z,22.42
2023-02-28T11:24:52.880Z,22.41
2023-02-28T11:25:52.779Z,22.39
2023-02-28T11:26:52.741Z,22.38
2023-02-28T11:27:52.992Z,22.40
2023-02-28T11:28:52.780Z,22.40
2023-02-28T11:29:52.804Z,22.41
2023-02-28T11:30:53.084Z,22.41
2023-02-28T11:31:52.709Z,22.39
2023-02-28T11:32:52.851Z,22.40
2023-02-28T11:33:52.684Z,22.39
2023-02-28T11:34:52.784Z,22.40
2023-02-28T11:35:53.027Z,22.40
2023-02-28T11:36:52.642Z,22.40
2023-02-28T11:37:53.059Z,22.40
2023-02-28T11:38:52.627Z,22.38
2023-02-28T11:39:52.992Z,22.37
2023-02-28T11:40:52.604Z,22.37
2023-02-28T11:41:52.600Z,22.36
2023-02-28T11:42:53.006Z,22.36
2023-02-28T11:43:52.586Z,22.34
2023-02-28T11:44:52.595Z,22.33
2023-02-28T11:45:52.558Z,22.33
2023-02-28T11:46:52.742Z,22.32
2023-02-28T11:47:52.995Z,22.31
2023-02-28T11:48:53.010Z,22.32
2023-02-28T11:49:52.527Z,22.32
2023-02-28T11:50:52.552Z,22.31
2023-02-28T11:52:53.092Z,22.32
2023-02-28T11:53:52.488Z,22.31
2023-02-28T11:54:52.477Z,22.31
2023-02-28T11:55:52.575Z,22.30
2023-02-28T11:56:52.461Z,22.30
2023-02-28T11:57:52.603Z,22.30
2023-02-28T11:58:52.453Z,22.30
2023-02-28T11:59:52.438Z,22.29
2023-02-28T12:00:52.515Z,22.29
2023-02-28T12:01:52.516Z,22.29
2023-02-28T12:02:52.622Z,22.28
2023-02-28T12:03:52.405Z,22.28
2023-02-28T12:04:52.392Z,22.28
2023-02-28T12:05:52.392Z,22.28
2023-02-28T12:06:52.541Z,22.28
2023-02-28T12:07:52.369Z,22.27
2023-02-28T12:08:52.541Z,22.27
2023-02-28T12:09:52.355Z,22.27
2023-02-28T12:10:52.339Z,22.27
2023-02-28T12:11:52.329Z,22.27
2023-02-28T12:12:52.518Z,22.26
2023-02-28T12:13:52.313Z,22.26
2023-02-28T12:14:52.336Z,22.25
2023-02-28T12:15:52.293Z,22.26
2023-02-28T12:16:52.282Z,22.27
2023-02-28T12:17:52.520Z,22.28
2023-02-28T12:18:52.516Z,22.29
2023-02-28T12:19:52.265Z,22.29
2023-02-28T12:20:52.249Z,22.31
2023-02-28T12:21:52.520Z,22.30
2023-02-28T12:22:52.257Z,22.29
2023-02-28T12:23:52.221Z,22.27
2023-02-28T12:24:52.240Z,22.26
2023-02-28T12:25:52.222Z,22.24
2023-02-28T12:26:52.523Z,22.24
2023-02-28T12:27:52.271Z,22.22
2023-02-28T12:28:52.173Z,22.21
2023-02-28T12:29:52.612Z,22.22
2023-02-28T12:30:52.527Z,22.23
2023-02-28T12:31:52.273Z,22.25
2023-02-28T12:32:52.147Z,22.27
2023-02-28T12:33:52.628Z,22.31
2023-02-28T12:34:52.122Z,22.33
2023-02-28T12:35:52.599Z,22.36
2023-02-28T12:36:52.109Z,22.38
2023-02-28T12:37:52.093Z,22.41
2023-02-28T12:38:52.107Z,22.40
2023-02-28T12:39:52.074Z,22.39
2023-02-28T12:40:52.562Z,22.39
2023-02-28T12:41:52.053Z,22.41
2023-02-28T12:42:52.053Z,22.41
2023-02-28T12:43:52.520Z,22.41
2023-02-28T12:44:52.030Z,22.42
2023-02-28T12:45:52.146Z,22.42
2023-02-28T15:11:50.732Z,22.38
2023-02-28T15:12:50.698Z,22.38
2023-02-28T15:13:50.687Z,22.36
2023-02-28T15:14:52.209Z,22.35
2023-02-28T15:17:50.645Z,22.37
2023-02-28T15:18:50.663Z,22.38
2023-02-28T15:19:50.726Z,22.38
2023-02-28T15:20:50.627Z,22.38
2023-02-28T15:21:50.610Z,22.37
2023-02-28T15:22:50.601Z,22.37
2023-02-28T15:23:50.598Z,22.37
2023-02-28T15:24:50.583Z,22.37
2023-02-28T15:25:50.612Z,22.37
2023-02-28T15:26:50.569Z,22.36
2023-02-28T15:27:50.555Z,22.37
2023-02-28T15:28:50.547Z,22.37
2023-02-28T15:29:50.535Z,22.37
2023-02-28T15:30:50.534Z,22.37
2023-02-28T15:31:57.349Z,22.37
2023-02-28T15:32:50.537Z,22.35
2023-02-28T15:33:50.503Z,22.35
2023-02-28T15:34:50.606Z,22.35
2023-02-28T15:35:50.528Z,22.35
2023-02-28T15:36:50.634Z,22.35
2023-02-28T15:37:50.485Z,22.35
2023-02-28T15:38:50.463Z,22.33
2023-02-28T15:39:50.446Z,22.33
2023-02-28T15:40:50.472Z,22.33
2023-02-28T15:41:50.429Z,22.32
2023-02-28T15:42:50.420Z,22.31
2023-02-28T15:43:50.408Z,22.29
2023-02-28T15:44:50.403Z,22.30
2023-02-28T15:45:50.494Z,22.31
2023-02-28T15:47:50.620Z,22.34
2023-02-28T15:48:50.462Z,22.34
2023-02-28T15:49:50.366Z,22.33
2023-02-28T15:50:50.407Z,22.31
2023-02-28T15:51:50.356Z,22.30
2023-02-28T15:52:50.332Z,22.29
2023-02-28T15:53:50.319Z,22.27
2023-02-28T15:54:50.313Z,22.27
2023-02-28T15:55:50.305Z,22.26
2023-02-28T15:56:50.301Z,22.26
2023-02-28T15:57:50.594Z,22.25
2023-02-28T15:58:50.280Z,22.25
2023-02-28T15:59:50.268Z,22.25
2023-02-28T16:00:50.290Z,22.24
2023-02-28T16:01:50.406Z,22.23
2023-02-28T16:02:50.368Z,22.23
2023-02-28T16:03:50.239Z,22.23
2023-02-28T16:04:50.228Z,22.22
2023-02-28T16:05:50.210Z,22.22
2023-02-28T16:06:50.242Z,22.21
2023-02-28T16:07:50.230Z,22.22
2023-02-28T16:08:50.184Z,22.22
2023-02-28T16:09:50.181Z,22.21
2023-02-28T16:10:50.166Z,22.22
2023-02-28T16:11:50.217Z,22.22
2023-02-28T16:12:50.152Z,22.22
2023-02-28T16:13:50.141Z,22.22
2023-02-28T16:14:50.136Z,22.22
2023-02-28T16:15:50.118Z,22.22
2023-02-28T16:16:50.230Z,22.22
2023-02-28T16:17:50.105Z,22.25
2023-02-28T16:18:50.096Z,22.26
2023-02-28T16:19:50.085Z,22.26